Fitchburg, MA

11:53 PM EDT on April 20, 2015 (GMT -0400)
Fitchburg Municipal | | Change Station
CLOSE
Current Station
Airport
Location: Fitchburg,
Elevation: 348 ft
Nearby Weather Stations

Elev 348 ft 42.55 °N, 71.76 °W | Updated 45 minutes ago

Light Rain
Light Rain Mist
48 °F
Feels Like 48 °F
N
5
Wind Variable Wind from NW

Today
High -- | Low -- °F
--% Chance of Precip.
Yesterday
High -- | Low -- °F
Precip. -- in
5:58 AM 7:34 PM
Waxing Crescent, 8% visible
Pressure 29.74 in
Visibility 6.0 miles
Clouds Overcast 500 ft
Dew Point 46 °F
Humidity 93%
Rainfall 0.93 in
Snow Depth Not available.
UV 0 out of 12
Pollen 3.90 out of 12
Air Quality Not available.
Flu Activity Widespread
SPECI KFIT 210308Z AUTO 31004KT 6SM -RA BR OVC005 09/08 A2974 RMK AO2 P0001 T00890078

More Conditions Fewer Conditions

Pressure 29.74 in
Visibility 6.0 miles
Clouds Overcast 500 ft
Dew Point 46 °F
Humidity 93%
Rainfall 0.93 in
Snow Depth Not available.
UV 0 out of 12
Pollen 3.90 out of 12
Air Quality Not available.
Flu Activity Widespread
SPECI KFIT 210308Z AUTO 31004KT 6SM -RA BR OVC005 09/08 A2974 RMK AO2 P0001 T00890078

More Conditions Fewer Conditions

10-Day Weather Forecast

Almanac

Astronomy

Apr. 20, 2015 Rise Set
Actual Time
Civil Twilight
Nautical Twilight
Astronomical Twilight
Moon
Length of Visible Light
Length of Day
Tomorrow will be .
, % of the Moon is Illuminated

Today's Extremes

State Highs State Lows

Community

WunderPhotos

Upload Photos

1,815,296 photos uploaded!

WunderBlogs® & News

Nearby

Air Quality

  Air Quality AQ Index Pollutant
Not available.

Snow Depth

Station Depth Elevation

Earthquake Activity

City Distance Mag. Time & Date
Minimum magnitude displayed is 2.5.

Coastal Water Temperatures

Place Temperature

Stations

Nearby Weather Stations

Station Location Temp. Windchill Dew Point Humidity Wind Precip. Elev Updated Type